リヴァプール の空港の天気 - METARとTAF

リバプール・ジョン・レノン空港 ( EGGP / LPL ) - イギリス リヴァプール
飛行場実況気象(Metar)
観測時間07/20 12:20 BST (07/20 11:20 UTC)
風向・風速西 9m/s
視程10km以上
天気現象
全天の4割程度の雲 雲底高度 300m
全天の8割程度の雲 雲底高度 490m
気温17℃
湿度83%
気圧1005hPa
METAREGGP 201120Z 28018KT 9999 SCT010 BKN016 17/14 Q1005
過去の天気等 Google飛行場航空写真 Wunderground天気予報

過去48時間のMETAR

飛行場予報(TAF)
発表時間: 7/20 12:00 BST (7/20 11:00 UTC)
予報対象時間: 20日13時 BST ~ 21日13時 BST
風向・風速西 9m/s
視程10km以上
全天の4割程度の雲 雲底高度 610m
21日4時 BST ~ 21日7時 BST に徐々に
風向・風速南南西 3m/s
21日10時 BST ~ 21日13時 BST に 確率 30% で一時的に
視程8000m
天気現象弱いしゅう雨
TAF EGGP 201100Z 2012/2112 27018KT 9999 SCT020
BECMG 2103/2106 20005KT
PROB30 TEMPO 2109/2112 8000 -SHRA